To NAV CANADA Home Page Login to a new session Search on AWWS site Feedback and Comments Disclaimer Vers la page française équivalente Tips FAQ What's new on the site To the Forecasts and Observations / NOTAM section To "File a Flight Plan" website Publications and other links Update of the User's profile FIC Telephone Numbers My Weather Data Folder Route Weather Data Regional Weather Data Local Weather Data To the Forecasts and Observations / NOTAM section
Request Generated 03/03/2015 at 07:17:14 UTC . Weather information available at that time is displayed.

METAR/TAF

GRANDE PRAIRIE/AB    

METAR CYQU 030700Z 17005KT 160V330 25SM SKC M17/M22 A3039 RMK SLP351=
METAR CYQU 030600Z 27004KT 25SM SKC M16/M22 A3040 RMK SLP353=
METAR CYQU 030500Z 29006KT 25SM SKC M17/M22 A3041 RMK SLP356=

TAF CYQU 030638Z 0307/0319 VRB03KT P6SM SKC
RMK NXT FCST BY 031300Z=
Your time UTC time
Weather data provided by Environment Canada and NAV CANADA